createdAt,value
2022-12-31T00:06:58.576Z,6.50
2022-12-31T00:22:00.361Z,7.13
2022-12-31T00:37:02.176Z,7.07
2022-12-31T00:52:05.260Z,7.27
2022-12-31T01:07:07.124Z,10.33
2022-12-31T01:22:08.955Z,10.17
2022-12-31T01:37:10.766Z,10.90
2022-12-31T01:52:15.120Z,9.97
2022-12-31T02:07:16.937Z,10.13
2022-12-31T02:22:42.980Z,11.60
2022-12-31T02:37:50.025Z,12.93
2022-12-31T02:52:54.912Z,12.13
2022-12-31T03:07:56.947Z,12.17
2022-12-31T03:22:58.758Z,12.17
2022-12-31T03:38:00.783Z,11.93
2022-12-31T03:53:02.982Z,12.13
2022-12-31T04:08:05.118Z,11.50
2022-12-31T04:23:06.986Z,11.57
2022-12-31T04:38:08.792Z,12.03
2022-12-31T04:53:11.171Z,13.83
2022-12-31T05:08:13.607Z,20.60
2022-12-31T05:23:16.975Z,14.43
2022-12-31T05:38:18.801Z,14.60
2022-12-31T05:53:21.248Z,14.97
2022-12-31T06:08:24.143Z,14.43
2022-12-31T06:23:25.938Z,14.40
2022-12-31T06:38:30.208Z,14.23
2022-12-31T06:53:32.989Z,14.10
2022-12-31T07:08:45.052Z,18.43
2022-12-31T07:23:47.146Z,12.10
2022-12-31T07:38:56.612Z,12.77
2022-12-31T07:53:58.507Z,12.33
2022-12-31T08:09:25.985Z,12.83
2022-12-31T08:24:43.266Z,11.93
2022-12-31T08:40:15.533Z,13.37
2022-12-31T08:55:19.911Z,14.03
2022-12-31T09:10:32.025Z,15.40
2022-12-31T09:25:34.092Z,14.73
2022-12-31T09:41:06.098Z,15.17
2022-12-31T09:56:29.702Z,15.30
2022-12-31T10:11:38.114Z,25.13
2022-12-31T10:26:39.862Z,13.77
2022-12-31T10:41:49.073Z,14.53
2022-12-31T10:57:12.491Z,14.37
2022-12-31T11:12:34.729Z,12.67
2022-12-31T11:28:02.752Z,12.27
2022-12-31T11:43:26.365Z,13.77
2022-12-31T11:58:30.014Z,14.00
2022-12-31T12:13:31.940Z,13.67
2022-12-31T12:28:45.783Z,12.97
2022-12-31T12:43:47.998Z,11.00
2022-12-31T12:58:59.552Z,13.73
2022-12-31T13:14:24.395Z,13.23
2022-12-31T13:29:31.613Z,13.00
2022-12-31T13:44:40.356Z,11.87
2022-12-31T13:59:50.714Z,10.87
2022-12-31T14:14:55.374Z,10.43
2022-12-31T14:30:05.654Z,11.77
2022-12-31T14:45:27.612Z,11.33
2022-12-31T15:00:57.013Z,10.57
2022-12-31T15:16:14.130Z,12.67
2022-12-31T15:31:18.961Z,12.10
2022-12-31T15:46:26.503Z,10.70
2022-12-31T16:01:37.237Z,15.37
2022-12-31T16:16:39.147Z,18.90
2022-12-31T16:31:43.600Z,14.57
2022-12-31T16:46:55.255Z,12.30
2022-12-31T17:02:02.112Z,11.47
2022-12-31T17:17:08.837Z,8.23
2022-12-31T17:32:19.770Z,10.53
2022-12-31T17:47:21.839Z,12.53
2022-12-31T18:02:24.126Z,9.47
2022-12-31T18:17:26.049Z,10.90
2022-12-31T18:32:32.043Z,9.80
2022-12-31T18:47:37.625Z,7.78
2022-12-31T19:02:40.348Z,7.30
2022-12-31T19:17:42.188Z,12.07
2022-12-31T19:32:44.169Z,7.73
2022-12-31T19:47:46.920Z,7.53
2022-12-31T20:02:50.744Z,7.40
2022-12-31T20:17:52.873Z,5.53
2022-12-31T20:32:55.752Z,6.60
2022-12-31T20:47:57.557Z,6.87
2022-12-31T21:03:10.469Z,11.17
2022-12-31T21:18:24.131Z,7.70
2022-12-31T21:33:26.042Z,6.30
2022-12-31T21:48:27.933Z,6.03
2022-12-31T22:03:30.314Z,6.33
2022-12-31T22:18:34.729Z,6.77
2022-12-31T22:33:36.705Z,6.50
2022-12-31T22:48:38.899Z,7.80
2022-12-31T23:03:42.951Z,12.43
2022-12-31T23:19:05.645Z,8.63
2022-12-31T23:34:08.734Z,6.60
2022-12-31T23:49:11.844Z,8.37
